Time;durP1;ratioP1;P1;durP2;ratioP2;P2;SDS_P1;SDS_P2;PMS_P1;PMS_P2;Temp;Humidity;BMP_temperature;BMP_pressure;BME280_temperature;BME280_humidity;BME280_pressure;Samples;Min_cycle;Max_cycle;Signal;HPM_P1;HPM_P2
2021/05/09 00:00:59;;;;;;;5.80;4.87;;;10.40;52.40;;;;;;5129488;27;37947;-76
2021/05/09 00:03:31;;;;;;;5.70;4.67;;;10.30;52.60;;;;;;5110703;27;36599;-75
2021/05/09 00:06:00;;;;;;;5.53;4.57;;;10.30;52.90;;;;;;5092642;27;39280;-76
2021/05/09 00:08:30;;;;;;;5.93;4.97;;;10.30;53.10;;;;;;5129586;27;39457;-77
2021/05/09 00:10:59;;;;;;;5.73;4.33;;;10.30;53.60;;;;;;5131488;27;37923;-75
2021/05/09 00:13:26;;;;;;;4.80;4.40;;;10.30;53.60;;;;;;5110835;27;35989;-75
2021/05/09 00:15:54;;;;;;;5.17;4.27;;;10.30;53.60;;;;;;5117238;27;38432;-75
2021/05/09 00:18:21;;;;;;;5.30;4.80;;;10.20;53.60;;;;;;5108794;27;38952;-77
2021/05/09 00:20:48;;;;;;;4.50;3.83;;;10.20;53.60;;;;;;5122420;27;37833;-76
2021/05/09 00:23:16;;;;;;;6.13;3.73;;;10.20;53.60;;;;;;5127859;27;36934;-75
2021/05/09 00:25:44;;;;;;;5.70;4.43;;;10.20;53.80;;;;;;5127651;27;39595;-76
2021/05/09 00:28:13;;;;;;;5.23;4.40;;;10.20;53.80;;;;;;5124716;27;38936;-76
2021/05/09 00:30:43;;;;;;;6.10;5.13;;;10.20;53.80;;;;;;5125844;27;39142;-76
2021/05/09 00:33:14;;;;;;;5.40;4.90;;;10.10;54.00;;;;;;5125236;27;36061;-76
2021/05/09 00:35:44;;;;;;;7.00;4.87;;;10.00;54.10;;;;;;5107038;27;38770;-75
2021/05/09 00:38:13;;;;;;;4.97;4.30;;;10.00;54.40;;;;;;5104582;27;38658;-76
2021/05/09 00:40:45;;;;;;;4.57;3.90;;;9.90;55.30;;;;;;5104065;27;36436;-75
2021/05/09 00:43:21;;;;;;;4.43;4.03;;;9.90;55.40;;;;;;5128380;27;36679;-76
2021/05/09 00:45:48;;;;;;;6.07;3.53;;;9.90;55.50;;;;;;5104538;28;38409;-76
2021/05/09 00:48:17;;;;;;;4.40;4.00;;;9.90;55.60;;;;;;5129060;27;39676;-77
2021/05/09 00:50:44;;;;;;;5.17;4.60;;;9.90;55.70;;;;;;5125422;27;37868;-75
2021/05/09 00:53:17;;;;;;;5.27;4.43;;;9.80;55.80;;;;;;5110461;27;36210;-75
2021/05/09 00:55:47;;;;;;;6.73;4.53;;;9.80;55.80;;;;;;5120955;27;39532;-75
2021/05/09 00:58:14;;;;;;;4.20;3.80;;;9.80;55.80;;;;;;5111563;27;37557;-75
2021/05/09 01:00:42;;;;;;;5.13;4.30;;;9.80;55.90;;;;;;5111882;27;37195;-75
2021/05/09 01:03:12;;;;;;;7.13;5.10;;;9.80;56.10;;;;;;5114560;27;36493;-76
2021/05/09 01:05:41;;;;;;;5.80;3.90;;;9.80;56.20;;;;;;5121896;27;41751;-74
2021/05/09 01:08:09;;;;;;;4.07;3.67;;;9.80;56.20;;;;;;5107801;27;38581;-76
2021/05/09 01:10:36;;;;;;;6.90;4.60;;;9.80;56.20;;;;;;5107672;27;36606;-77
2021/05/09 01:13:04;;;;;;;5.23;4.00;;;9.80;56.00;;;;;;5127783;27;38255;-77
2021/05/09 01:15:35;;;;;;;4.40;3.30;;;9.70;56.00;;;;;;5102446;27;38328;-76
2021/05/09 01:18:02;;;;;;;4.40;4.00;;;9.70;55.90;;;;;;5127941;27;38701;-76
2021/05/09 01:20:37;;;;;;;4.13;3.53;;;9.70;56.00;;;;;;5120936;27;37679;-75
2021/05/09 01:23:06;;;;;;;4.27;3.87;;;9.70;56.10;;;;;;5122323;27;36096;-75
2021/05/09 01:25:34;;;;;;;4.70;4.00;;;9.60;56.20;;;;;;5103206;27;39213;-75
2021/05/09 01:28:01;;;;;;;4.50;4.00;;;9.60;56.50;;;;;;5114648;27;37689;-75
2021/05/09 01:30:29;;;;;;;4.73;4.10;;;9.60;56.40;;;;;;5103564;27;36880;-75
2021/05/09 01:32:57;;;;;;;4.50;3.77;;;9.60;56.30;;;;;;5130888;27;36213;-77
2021/05/09 01:35:24;;;;;;;4.03;3.47;;;9.60;56.20;;;;;;5112921;27;40180;-76
2021/05/09 01:37:53;;;;;;;6.03;3.50;;;9.60;56.30;;;;;;5119357;27;38859;-75
2021/05/09 01:40:20;;;;;;;3.80;3.40;;;9.60;56.30;;;;;;5130505;27;37194;-75
2021/05/09 01:42:48;;;;;;;4.10;3.60;;;9.60;56.40;;;;;;5125391;27;36982;-76
2021/05/09 01:45:18;;;;;;;3.77;3.23;;;9.60;56.40;;;;;;5111576;27;38949;-74
2021/05/09 01:47:45;;;;;;;4.17;3.17;;;9.50;56.30;;;;;;5113092;27;38958;-76
2021/05/09 01:50:17;;;;;;;4.13;3.80;;;9.50;56.30;;;;;;5119096;27;38947;-76
2021/05/09 01:52:45;;;;;;;5.53;4.30;;;9.50;56.40;;;;;;5109779;28;34985;-77
2021/05/09 01:55:18;;;;;;;4.67;4.23;;;9.50;56.70;;;;;;5107860;27;38496;-76
2021/05/09 01:57:49;;;;;;;4.43;4.03;;;9.50;56.60;;;;;;5114249;27;38447;-75
2021/05/09 02:00:26;;;;;;;4.33;3.90;;;9.50;56.70;;;;;;5110271;27;38239;-75
2021/05/09 02:03:02;;;;;;;4.30;3.90;;;9.50;56.70;;;;;;5110883;27;37575;-75
2021/05/09 02:05:32;;;;;;;4.20;3.53;;;9.50;56.70;;;;;;5118254;27;39754;-74
2021/05/09 02:08:02;;;;;;;3.93;3.60;;;9.40;56.90;;;;;;5107336;27;38765;-76
2021/05/09 02:10:31;;;;;;;4.20;3.80;;;9.40;57.00;;;;;;5108260;27;36692;-76
2021/05/09 02:13:00;;;;;;;5.00;4.43;;;9.30;57.00;;;;;;5111191;27;35899;-76
2021/05/09 02:15:41;;;;;;;4.83;4.33;;;9.30;57.10;;;;;;5112142;27;39984;-77
2021/05/09 02:18:09;;;;;;;5.70;4.60;;;9.30;57.00;;;;;;5113893;27;37783;-76
2021/05/09 02:20:41;;;;;;;4.20;3.80;;;9.30;57.10;;;;;;5111749;27;37450;-76
2021/05/09 02:23:08;;;;;;;4.73;3.60;;;9.30;57.10;;;;;;5111790;27;36209;-76
2021/05/09 02:25:36;;;;;;;4.90;4.50;;;9.30;57.20;;;;;;5110984;27;39550;-77
2021/05/09 02:28:08;;;;;;;4.40;4.00;;;9.30;56.80;;;;;;5106596;27;38482;-75
2021/05/09 02:30:35;;;;;;;5.30;4.20;;;9.20;56.90;;;;;;5110319;27;37862;-76
2021/05/09 02:33:03;;;;;;;6.53;4.30;;;9.20;57.00;;;;;;5111280;27;38161;-75
2021/05/09 02:35:32;;;;;;;6.30;4.37;;;9.20;57.00;;;;;;5125954;27;39778;-75
2021/05/09 02:38:00;;;;;;;6.40;4.60;;;9.10;57.10;;;;;;5099267;27;37346;-76
2021/05/09 02:40:27;;;;;;;4.80;4.13;;;9.10;57.20;;;;;;5130532;27;38044;-75
2021/05/09 02:42:58;;;;;;;4.90;4.40;;;9.10;57.40;;;;;;5127040;27;37723;-76
2021/05/09 02:45:26;;;;;;;4.83;4.33;;;9.10;57.40;;;;;;5113005;27;39831;-75
2021/05/09 02:47:56;;;;;;;5.47;4.17;;;9.10;57.50;;;;;;5123833;27;38987;-76
2021/05/09 02:50:24;;;;;;;5.80;4.10;;;9.10;57.60;;;;;;5112248;27;36630;-76
2021/05/09 02:52:51;;;;;;;4.50;4.10;;;9.10;57.60;;;;;;5108094;27;35736;-75
2021/05/09 02:55:18;;;;;;;5.20;4.27;;;9.10;57.60;;;;;;5103978;27;39814;-74
2021/05/09 02:57:48;;;;;;;4.60;3.87;;;9.10;57.80;;;;;;5126631;27;39893;-75
2021/05/09 03:00:17;;;;;;;4.93;4.20;;;9.10;57.80;;;;;;5092905;27;37239;-75
2021/05/09 03:02:45;;;;;;;5.20;4.63;;;9.10;57.80;;;;;;5132021;27;37353;-76
2021/05/09 03:05:18;;;;;;;7.60;4.27;;;9.10;57.80;;;;;;5117740;27;37865;-76
2021/05/09 03:07:46;;;;;;;5.70;4.70;;;9.00;57.70;;;;;;5108952;27;37935;-76
2021/05/09 03:10:15;;;;;;;5.47;4.20;;;9.00;57.70;;;;;;5108439;27;39074;-75
2021/05/09 03:12:42;;;;;;;4.53;3.90;;;9.10;57.80;;;;;;5103953;27;35971;-75
2021/05/09 03:15:11;;;;;;;5.10;4.57;;;9.00;58.10;;;;;;5110167;27;38307;-75
2021/05/09 03:17:39;;;;;;;7.93;7.23;;;9.10;58.20;;;;;;5112492;27;38757;-75
2021/05/09 03:20:08;;;;;;;7.97;7.27;;;9.10;57.90;;;;;;5130309;27;38154;-75
2021/05/09 03:22:35;;;;;;;5.90;5.20;;;9.10;57.80;;;;;;5129317;27;37301;-75
2021/05/09 03:25:03;;;;;;;5.17;4.33;;;9.10;57.80;;;;;;5103821;27;39282;-75
2021/05/09 03:27:30;;;;;;;4.87;4.37;;;9.10;57.90;;;;;;5121667;27;38952;-76
2021/05/09 03:29:58;;;;;;;4.80;4.30;;;9.00;57.70;;;;;;5129054;27;37942;-76
2021/05/09 03:32:25;;;;;;;4.43;4.03;;;9.00;57.70;;;;;;5127965;27;37675;-75
2021/05/09 03:34:53;;;;;;;4.87;4.40;;;9.00;57.70;;;;;;5128844;27;39459;-76
2021/05/09 03:37:21;;;;;;;6.10;4.23;;;9.00;58.00;;;;;;5124650;27;39343;-75
2021/05/09 03:39:48;;;;;;;6.13;4.70;;;9.00;58.00;;;;;;5102662;27;37815;-74
2021/05/09 03:42:16;;;;;;;9.53;5.00;;;9.10;58.20;;;;;;5132112;27;37936;-75
2021/05/09 03:44:43;;;;;;;6.43;4.47;;;9.10;58.10;;;;;;5125463;27;39540;-75
2021/05/09 03:47:10;;;;;;;6.00;4.67;;;9.10;58.20;;;;;;5109968;27;37753;-76
2021/05/09 03:49:37;;;;;;;11.53;4.80;;;9.10;58.10;;;;;;5096749;27;36762;-76
2021/05/09 03:52:06;;;;;;;6.17;4.17;;;9.10;57.90;;;;;;5127175;27;37072;-76
2021/05/09 03:54:34;;;;;;;4.93;4.43;;;9.10;57.80;;;;;;5129399;27;39849;-75
2021/05/09 03:57:02;;;;;;;4.77;4.37;;;9.20;58.00;;;;;;5127882;27;39412;-75
2021/05/09 03:59:31;;;;;;;6.60;4.57;;;9.10;57.80;;;;;;5128626;27;38723;-76
2021/05/09 04:01:58;;;;;;;5.80;4.63;;;9.10;58.10;;;;;;5124548;27;37182;-75
2021/05/09 04:04:25;;;;;;;7.80;4.53;;;9.10;58.30;;;;;;5123295;27;39884;-75
2021/05/09 04:06:52;;;;;;;4.40;4.00;;;9.20;58.30;;;;;;5099597;27;38160;-76
2021/05/09 04:09:23;;;;;;;5.30;4.80;;;9.30;58.30;;;;;;5123973;27;37872;-77
2021/05/09 04:11:50;;;;;;;5.60;4.43;;;9.30;58.10;;;;;;5121966;27;37151;-75
2021/05/09 04:14:17;;;;;;;5.13;4.53;;;9.40;58.10;;;;;;5129350;27;40065;-76
2021/05/09 04:16:44;;;;;;;4.70;4.10;;;9.40;58.10;;;;;;5108018;27;37668;-75
2021/05/09 04:19:12;;;;;;;5.23;4.07;;;9.50;58.20;;;;;;5130466;27;20577;-75
2021/05/09 04:21:40;;;;;;;4.80;4.30;;;9.60;58.30;;;;;;5128600;27;37338;-76
2021/05/09 04:24:08;;;;;;;6.40;4.30;;;9.70;58.20;;;;;;5131252;27;39238;-75
2021/05/09 04:26:36;;;;;;;5.00;4.50;;;9.80;58.00;;;;;;5109236;27;37571;-75
2021/05/09 04:29:04;;;;;;;5.07;3.80;;;9.90;57.70;;;;;;5107201;27;36701;-75
2021/05/09 04:31:31;;;;;;;4.50;4.10;;;10.00;56.70;;;;;;5104570;27;36538;-75
2021/05/09 04:33:58;;;;;;;5.20;4.10;;;10.10;56.50;;;;;;5101516;27;38180;-76
2021/05/09 04:36:25;;;;;;;5.03;3.87;;;10.20;56.10;;;;;;5123062;27;39283;-76
2021/05/09 04:38:55;;;;;;;4.90;4.13;;;10.40;55.90;;;;;;5106657;27;37610;-76
2021/05/09 04:41:22;;;;;;;4.80;3.83;;;10.50;55.60;;;;;;5125767;27;36831;-76
2021/05/09 04:43:50;;;;;;;4.60;4.20;;;10.60;55.40;;;;;;5118383;27;39848;-76
2021/05/09 04:46:17;;;;;;;4.17;3.77;;;10.80;55.10;;;;;;5127509;27;39578;-76
2021/05/09 04:48:44;;;;;;;4.70;4.07;;;11.00;54.30;;;;;;5109563;27;36795;-76
2021/05/09 04:51:11;;;;;;;4.97;4.30;;;11.20;54.10;;;;;;5127553;27;37866;-76
2021/05/09 04:53:38;;;;;;;5.07;4.57;;;11.40;53.30;;;;;;5104378;27;38599;-76
2021/05/09 04:56:07;;;;;;;5.73;5.10;;;11.70;53.00;;;;;;5129463;27;39949;-76
2021/05/09 04:58:37;;;;;;;6.03;5.13;;;11.90;52.70;;;;;;5122505;27;37844;-76
2021/05/09 05:01:08;;;;;;;4.90;4.50;;;12.10;52.00;;;;;;5133576;27;37628;-76
2021/05/09 05:03:35;;;;;;;5.90;5.00;;;12.40;51.20;;;;;;5128666;27;39918;-75
2021/05/09 05:06:04;;;;;;;5.47;4.57;;;12.70;50.50;;;;;;5126509;27;39123;-76
2021/05/09 05:08:34;;;;;;;4.70;4.20;;;12.90;49.80;;;;;;5131515;27;37940;-76
2021/05/09 05:11:04;;;;;;;5.33;4.30;;;13.10;49.20;;;;;;5106893;27;36081;-75
2021/05/09 05:13:32;;;;;;;7.23;4.90;;;13.20;48.10;;;;;;5127320;27;40814;-76
2021/05/09 05:16:01;;;;;;;5.67;4.80;;;13.40;47.80;;;;;;5113286;27;39252;-75
2021/05/09 05:18:29;;;;;;;7.60;5.00;;;13.50;47.80;;;;;;5126328;27;36226;-76
2021/05/09 05:21:01;;;;;;;4.90;4.40;;;13.80;47.60;;;;;;5109750;27;37009;-76
2021/05/09 05:23:28;;;;;;;5.30;4.33;;;14.00;46.90;;;;;;5129791;27;40425;-76
2021/05/09 05:25:59;;;;;;;5.30;4.10;;;14.20;46.20;;;;;;5122769;27;39410;-77
2021/05/09 05:28:28;;;;;;;5.10;4.30;;;14.50;45.30;;;;;;5118004;27;38965;-76
2021/05/09 05:30:55;;;;;;;5.50;4.27;;;14.80;45.20;;;;;;5127747;27;37383;-76
2021/05/09 05:33:28;;;;;;;5.10;4.17;;;15.00;44.20;;;;;;5123382;27;40540;-76
2021/05/09 05:35:56;;;;;;;4.00;3.70;;;15.30;45.50;;;;;;5127121;27;40154;-76
2021/05/09 05:38:23;;;;;;;5.47;3.97;;;15.90;42.80;;;;;;5130777;27;37895;-77
2021/05/09 05:40:54;;;;;;;3.90;3.60;;;16.50;42.00;;;;;;5124238;27;38033;-77
2021/05/09 05:43:22;;;;;;;4.90;4.40;;;17.00;41.10;;;;;;5126500;27;39266;-77
2021/05/09 05:45:50;;;;;;;4.37;3.97;;;17.40;40.30;;;;;;5109480;27;37658;-77
2021/05/09 05:48:18;;;;;;;4.80;4.30;;;17.80;39.60;;;;;;5126227;27;39351;-76
2021/05/09 05:50:46;;;;;;;6.37;4.70;;;18.30;38.60;;;;;;5133958;27;37993;-76
2021/05/09 05:53:18;;;;;;;5.03;4.27;;;18.50;38.90;;;;;;5127066;27;39446;-77
2021/05/09 05:55:48;;;;;;;4.70;4.00;;;19.20;37.60;;;;;;5123597;27;38809;-76
2021/05/09 05:58:16;;;;;;;3.80;3.50;;;19.90;36.70;;;;;;5129458;27;39171;-77
2021/05/09 06:00:44;;;;;;;5.63;3.67;;;21.30;35.40;;;;;;5130238;27;37932;-77
2021/05/09 06:03:12;;;;;;;3.13;2.83;;;23.50;32.60;;;;;;5122879;27;39947;-77
2021/05/09 06:05:39;;;;;;;3.03;2.83;;;25.90;29.00;;;;;;5102757;27;37955;-77
2021/05/09 06:08:07;;;;;;;3.03;2.67;;;28.30;26.80;;;;;;5112222;27;36760;-75
2021/05/09 06:10:36;;;;;;;3.57;2.80;;;30.10;24.10;;;;;;5127019;27;36907;-76
2021/05/09 06:13:03;;;;;;;2.97;2.77;;;31.80;22.60;;;;;;5131308;27;39437;-75
2021/05/09 06:15:31;;;;;;;3.03;2.70;;;33.20;21.50;;;;;;5127079;27;40238;-76
2021/05/09 06:17:58;;;;;;;2.90;2.70;;;34.40;20.10;;;;;;5122318;27;37181;-76
2021/05/09 06:20:26;;;;;;;5.50;2.70;;;35.50;19.50;;;;;;5127894;27;34768;-77
2021/05/09 06:22:56;;;;;;;3.10;2.80;;;36.40;18.50;;;;;;5125616;27;39520;-76
2021/05/09 06:25:24;;;;;;;3.30;3.00;;;37.30;17.90;;;;;;5112355;27;37990;-76
2021/05/09 06:27:51;;;;;;;2.87;2.67;;;37.80;17.00;;;;;;5125431;27;37957;-77
2021/05/09 06:30:20;;;;;;;3.40;3.03;;;38.10;16.60;;;;;;5119351;27;37131;-76
2021/05/09 06:32:47;;;;;;;2.93;2.73;;;38.80;16.00;;;;;;5103110;27;38901;-77
2021/05/09 06:35:14;;;;;;;4.60;2.87;;;39.30;15.40;;;;;;5108747;27;39436;-77
2021/05/09 06:37:45;;;;;;;3.40;3.10;;;39.50;14.80;;;;;;5130475;27;38357;-77
2021/05/09 06:40:17;;;;;;;2.70;2.50;;;40.10;14.60;;;;;;5108056;28;37671;-77
2021/05/09 06:42:54;;;;;;;3.50;3.00;;;40.60;14.40;;;;;;5121418;27;40252;-77
2021/05/09 06:45:23;;;;;;;3.10;2.90;;;40.80;14.10;;;;;;5127454;27;38985;-77
2021/05/09 06:47:50;;;;;;;3.20;2.90;;;41.40;13.60;;;;;;5122184;27;38028;-77
2021/05/09 06:50:18;;;;;;;3.37;2.70;;;41.90;13.30;;;;;;5100531;28;36167;-78
2021/05/09 06:52:45;;;;;;;2.60;2.40;;;42.30;12.90;;;;;;5126397;27;40436;-77
2021/05/09 06:55:12;;;;;;;3.20;2.90;;;42.60;12.60;;;;;;5129039;27;38650;-78
2021/05/09 06:57:40;;;;;;;3.93;2.90;;;43.30;12.50;;;;;;5128679;27;38010;-78
2021/05/09 07:00:10;;;;;;;2.80;2.60;;;43.30;11.90;;;;;;5128819;27;37344;-78
2021/05/09 07:02:39;;;;;;;3.00;2.80;;;43.40;12.00;;;;;;5113529;27;39591;-78
2021/05/09 07:05:07;;;;;;;3.00;2.70;;;43.70;11.90;;;;;;5126787;27;39038;-78
2021/05/09 07:07:49;;;;;;;3.13;2.83;;;44.10;11.80;;;;;;5113543;27;36776;-78
2021/05/09 07:10:16;;;;;;;2.63;2.30;;;44.70;11.60;;;;;;5125648;27;37906;-78
2021/05/09 07:12:43;;;;;;;4.20;3.00;;;45.20;11.30;;;;;;5134060;27;39823;-78
2021/05/09 07:15:15;;;;;;;3.87;2.70;;;45.60;10.70;;;;;;5126276;27;39014;-78
2021/05/09 07:17:52;;;;;;;4.73;2.70;;;45.70;10.80;;;;;;5124679;27;37831;-78
2021/05/09 07:20:20;;;;;;;3.77;3.37;;;46.00;10.40;;;;;;5128819;27;38015;-79
2021/05/09 07:22:52;;;;;;;3.23;3.03;;;46.30;10.20;;;;;;5120698;27;39556;-79
2021/05/09 07:25:20;;;;;;;3.50;2.37;;;47.00;10.40;;;;;;5119325;27;39128;-79
2021/05/09 07:27:48;;;;;;;2.40;2.27;;;47.10;10.00;;;;;;5121588;27;38223;-79
2021/05/09 07:30:16;;;;;;;2.37;2.10;;;47.20;10.00;;;;;;5125792;27;37347;-79
2021/05/09 07:32:44;;;;;;;2.20;1.90;;;47.50;9.80;;;;;;5112592;27;38251;-80
2021/05/09 07:35:11;;;;;;;1.70;1.60;;;48.00;9.50;;;;;;5109619;27;39120;-80
2021/05/09 07:37:38;;;;;;;2.60;2.10;;;48.20;9.40;;;;;;5129862;27;37173;-79
2021/05/09 07:40:06;;;;;;;1.70;1.47;;;48.50;9.00;;;;;;5132903;27;37114;-79
2021/05/09 07:42:33;;;;;;;2.00;1.80;;;48.70;8.80;;;;;;5130577;27;39658;-79
2021/05/09 07:45:00;;;;;;;3.87;2.00;;;48.50;8.40;;;;;;5126288;27;39388;-79
2021/05/09 07:47:28;;;;;;;4.13;1.30;;;48.80;8.60;;;;;;5130756;27;38398;-80
2021/05/09 07:49:55;;;;;;;2.13;1.20;;;49.20;8.00;;;;;;5132274;27;35091;-80
2021/05/09 07:52:29;;;;;;;1.53;1.37;;;49.40;7.80;;;;;;5129027;27;40541;-80
2021/05/09 07:54:56;;;;;;;1.83;1.47;;;49.50;7.90;;;;;;5100552;27;37764;-80
2021/05/09 07:57:23;;;;;;;2.27;1.60;;;49.50;7.70;;;;;;5134280;27;37781;-80
2021/05/09 07:59:50;;;;;;;2.77;1.30;;;49.70;7.50;;;;;;5113265;27;36994;-79
2021/05/09 08:02:17;;;;;;;6.23;1.97;;;50.30;7.40;;;;;;5125434;27;39337;-80
2021/05/09 08:04:45;;;;;;;5.80;2.43;;;50.80;7.40;;;;;;5126417;27;39554;-79
2021/05/09 08:07:12;;;;;;;1.20;1.10;;;51.10;7.30;;;;;;5129803;27;37378;-79
2021/05/09 08:09:41;;;;;;;1.50;1.30;;;51.10;6.70;;;;;;5114881;27;37168;-80
2021/05/09 08:12:09;;;;;;;2.80;1.60;;;51.30;7.00;;;;;;5125788;27;39620;-79
2021/05/09 08:14:36;;;;;;;1.63;1.10;;;51.50;7.00;;;;;;5133641;27;38770;-80
2021/05/09 08:17:03;;;;;;;2.10;1.27;;;51.80;6.70;;;;;;5146824;27;38953;-79
2021/05/09 08:19:30;;;;;;;2.93;1.50;;;51.90;6.50;;;;;;5140507;27;38137;-79
2021/05/09 08:21:59;;;;;;;1.50;1.27;;;51.90;6.60;;;;;;5140932;27;41055;-80
2021/05/09 08:24:26;;;;;;;1.37;1.27;;;51.80;6.50;;;;;;5133798;27;39621;-80
2021/05/09 08:26:53;;;;;;;2.60;1.40;;;52.10;6.70;;;;;;5149685;27;38947;-79
2021/05/09 08:29:20;;;;;;;4.30;1.50;;;52.40;6.70;;;;;;5154190;27;37402;-78
2021/05/09 08:31:48;;;;;;;1.90;1.60;;;52.60;6.50;;;;;;5158531;27;41199;-79
2021/05/09 08:34:15;;;;;;;1.77;1.13;;;52.30;6.40;;;;;;5157030;27;40267;-80
2021/05/09 08:36:43;;;;;;;1.50;1.40;;;52.60;6.50;;;;;;5148077;27;38130;-80
2021/05/09 08:39:11;;;;;;;1.60;1.20;;;52.70;6.30;;;;;;5130086;27;37825;-78
2021/05/09 08:41:41;;;;;;;3.50;1.47;;;53.00;6.20;;;;;;5134495;27;40577;-80
2021/05/09 08:44:11;;;;;;;1.60;1.50;;;53.20;6.20;;;;;;5130829;27;40270;-79
2021/05/09 08:46:38;;;;;;;1.80;1.23;;;53.60;6.20;;;;;;5136347;27;38335;-79
2021/05/09 08:49:08;;;;;;;2.40;1.17;;;54.00;6.10;;;;;;5133875;27;37536;-80
2021/05/09 08:51:41;;;;;;;2.20;1.27;;;54.00;5.50;;;;;;5136174;27;39877;-80
2021/05/09 08:54:15;;;;;;;1.37;1.10;;;54.10;5.70;;;;;;5136170;27;41512;-79
2021/05/09 08:56:43;;;;;;;1.33;1.20;;;54.10;5.50;;;;;;5134243;27;37984;-79
2021/05/09 08:59:14;;;;;;;1.47;1.27;;;54.40;5.20;;;;;;5118101;27;36960;-79
2021/05/09 09:01:42;;;;;;;1.50;1.10;;;54.40;5.70;;;;;;5129778;27;38937;-78
2021/05/09 09:04:43;;;;;;;1.77;1.03;;;54.50;5.00;;;;;;5134169;27;39019;-80
2021/05/09 09:07:16;;;;;;;2.40;1.10;;;54.40;5.00;;;;;;5121762;27;38936;-79
2021/05/09 09:09:45;;;;;;;1.53;0.80;;;54.00;5.30;;;;;;5130184;27;38271;-79
2021/05/09 09:12:13;;;;;;;2.50;0.90;;;54.10;4.80;;;;;;5127237;27;40857;-79
2021/05/09 09:14:59;;;;;;;1.37;0.87;;;53.00;4.10;;;;;;5135841;27;38869;-79
2021/05/09 09:17:27;;;;;;;2.03;1.00;;;52.80;3.60;;;;;;5116105;27;38135;-81
2021/05/09 09:20:07;;;;;;;1.83;1.00;;;52.60;4.80;;;;;;5131829;27;38616;-80
2021/05/09 09:23:03;;;;;;;1.40;1.10;;;52.90;4.90;;;;;;5135297;27;40523;-81
2021/05/09 09:25:38;;;;;;;1.10;0.90;;;53.00;4.90;;;;;;5106568;27;37833;-80
2021/05/09 09:28:05;;;;;;;1.23;0.80;;;52.20;3.50;;;;;;5117168;27;37658;-78
2021/05/09 09:30:49;;;;;;;1.37;1.00;;;51.90;3.70;;;;;;5111617;27;35847;-77
2021/05/09 09:33:21;;;;;;;1.30;0.97;;;50.50;3.70;;;;;;5094718;28;40199;-79
2021/05/09 09:35:54;;;;;;;1.80;0.80;;;49.00;4.10;;;;;;5117183;28;38180;-77
2021/05/09 09:38:30;;;;;;;2.40;1.10;;;47.50;4.50;;;;;;5109180;28;37777;-78
2021/05/09 09:41:23;;;;;;;1.30;1.10;;;48.10;4.10;;;;;;5098535;28;36991;-79
2021/05/09 09:44:06;;;;;;;0.80;0.80;;;47.20;4.70;;;;;;5090557;28;39582;-78
2021/05/09 09:46:40;;;;;;;1.20;0.90;;;47.20;4.00;;;;;;5098338;28;37776;-78
2021/05/09 09:49:19;;;;;;;1.57;1.33;;;47.40;4.40;;;;;;5115207;28;38863;-77
2021/05/09 09:51:55;;;;;;;1.20;1.10;;;47.00;4.40;;;;;;5100578;28;35820;-78
2021/05/09 09:54:37;;;;;;;6.80;6.30;;;46.80;4.80;;;;;;5114574;28;39757;-79
2021/05/09 09:57:11;;;;;;;2.83;2.30;;;48.20;4.60;;;;;;5108489;28;38730;-79
2021/05/09 09:59:43;;;;;;;1.40;1.10;;;49.80;4.00;;;;;;5087076;28;37767;-79
2021/05/09 10:02:13;;;;;;;3.50;1.90;;;51.00;3.90;;;;;;5103881;28;37762;-80
2021/05/09 10:04:43;;;;;;;1.50;0.97;;;51.90;4.20;;;;;;5086330;28;38299;-79
2021/05/09 10:07:11;;;;;;;1.90;1.03;;;52.20;3.40;;;;;;5084979;28;38900;-79
2021/05/09 10:09:49;;;;;;;2.07;1.40;;;52.50;4.00;;;;;;5105897;28;38887;-79
2021/05/09 10:12:17;;;;;;;1.23;1.07;;;52.70;3.70;;;;;;5084820;28;36281;-78
2021/05/09 10:14:45;;;;;;;1.10;0.83;;;52.90;3.50;;;;;;5095251;28;39896;-78
2021/05/09 10:17:13;;;;;;;1.10;0.70;;;50.20;3.20;;;;;;5112256;28;39901;-79
2021/05/09 10:19:44;;;;;;;1.57;0.90;;;47.50;3.60;;;;;;5113270;28;38532;-79
2021/05/09 10:22:28;;;;;;;0.83;0.77;;;46.70;4.50;;;;;;5115886;28;38137;-79
2021/05/09 10:24:58;;;;;;;1.97;1.00;;;47.70;4.50;;;;;;5114351;28;40277;-78
2021/05/09 10:27:38;;;;;;;1.20;0.80;;;48.60;4.00;;;;;;5115133;28;39258;-78
2021/05/09 10:30:06;;;;;;;1.37;0.70;;;49.00;3.90;;;;;;5115474;28;38272;-78
2021/05/09 10:32:50;;;;;;;1.43;0.83;;;49.50;3.50;;;;;;5113734;27;37345;-78
2021/05/09 10:35:33;;;;;;;1.87;0.80;;;49.90;3.40;;;;;;5103028;27;38013;-77
2021/05/09 10:38:05;;;;;;;1.50;0.90;;;48.40;3.40;;;;;;5112929;27;37379;-79
2021/05/09 10:40:38;;;;;;;1.30;0.90;;;46.30;4.10;;;;;;5115138;27;36820;-78
2021/05/09 10:43:33;;;;;;;2.17;1.03;;;44.50;4.50;;;;;;5130423;27;37440;-78
2021/05/09 10:46:01;;;;;;;1.10;0.70;;;43.80;5.10;;;;;;5130588;27;39928;-78
2021/05/09 10:48:31;;;;;;;2.67;1.00;;;43.30;5.10;;;;;;5118368;27;37761;-79
2021/05/09 10:51:35;;;;;;;1.57;0.93;;;42.80;5.30;;;;;;5114511;27;36892;-77
2021/05/09 10:54:30;;;;;;;1.80;0.80;;;42.80;6.00;;;;;;5098561;27;37503;-79
2021/05/09 10:56:57;;;;;;;1.87;0.80;;;41.00;6.50;;;;;;5118443;27;40436;-78
2021/05/09 10:59:58;;;;;;;1.10;0.80;;;40.20;6.20;;;;;;5134873;27;39815;-79
2021/05/09 11:02:30;;;;;;;4.07;0.90;;;39.90;6.60;;;;;;5135458;27;37828;-78
2021/05/09 11:04:59;;;;;;;1.23;0.90;;;39.90;6.60;;;;;;5139264;27;38423;-77
2021/05/09 11:07:43;;;;;;;3.27;0.77;;;39.50;7.00;;;;;;5130376;27;40376;-75
2021/05/09 11:10:40;;;;;;;2.00;0.90;;;38.50;7.40;;;;;;5135765;27;39079;-78
2021/05/09 11:13:12;;;;;;;1.63;0.97;;;38.20;7.50;;;;;;5130374;27;38118;-78
2021/05/09 11:15:39;;;;;;;0.90;0.70;;;37.40;7.60;;;;;;5116961;27;37149;-78
2021/05/09 11:18:15;;;;;;;1.30;0.80;;;37.00;8.60;;;;;;5137157;27;40534;-78
2021/05/09 11:20:52;;;;;;;3.80;0.87;;;36.40;8.70;;;;;;5105715;27;37801;-78
2021/05/09 11:23:19;;;;;;;1.10;0.80;;;35.70;9.40;;;;;;5131981;27;38493;-78
2021/05/09 11:25:46;;;;;;;3.17;0.80;;;35.20;9.50;;;;;;5141600;27;37237;-77
2021/05/09 11:28:13;;;;;;;1.30;1.13;;;34.60;9.90;;;;;;5135525;27;40774;-77
2021/05/09 11:30:40;;;;;;;2.10;0.80;;;34.00;10.20;;;;;;5126017;27;38022;-78
2021/05/09 11:33:07;;;;;;;1.83;0.90;;;33.50;11.00;;;;;;5108571;27;36844;-77
2021/05/09 11:35:40;;;;;;;1.77;1.00;;;33.20;11.40;;;;;;5139441;27;37298;-77
2021/05/09 11:38:14;;;;;;;1.40;0.90;;;33.10;12.40;;;;;;5139676;27;40219;-77
2021/05/09 11:40:41;;;;;;;1.83;1.00;;;32.70;12.20;;;;;;5115407;28;38829;-78
2021/05/09 11:43:12;;;;;;;2.10;1.00;;;32.40;12.20;;;;;;5132177;27;37747;-78
2021/05/09 11:45:40;;;;;;;2.60;1.20;;;32.00;11.40;;;;;;5132014;27;37558;-78
2021/05/09 11:48:08;;;;;;;1.17;0.87;;;31.60;12.60;;;;;;5141912;27;39711;-78
2021/05/09 11:50:35;;;;;;;1.20;0.77;;;31.30;12.40;;;;;;5122242;27;38252;-76
2021/05/09 11:53:03;;;;;;;1.17;0.70;;;31.10;12.20;;;;;;5121546;27;38158;-77
2021/05/09 11:55:31;;;;;;;1.00;0.90;;;30.90;12.90;;;;;;5140350;27;38235;-77
2021/05/09 11:57:58;;;;;;;1.03;0.83;;;30.60;13.40;;;;;;5136916;27;39463;-75
2021/05/09 12:00:25;;;;;;;1.53;1.00;;;30.50;13.20;;;;;;5117284;28;38264;-78
2021/05/09 12:02:52;;;;;;;4.20;0.97;;;30.50;13.80;;;;;;5119525;27;37962;-77
2021/05/09 12:05:21;;;;;;;0.80;0.70;;;30.60;13.70;;;;;;5120396;27;37479;-76
2021/05/09 12:07:49;;;;;;;1.17;0.80;;;30.60;13.30;;;;;;5129371;27;39675;-76
2021/05/09 12:10:25;;;;;;;1.50;0.90;;;30.60;13.20;;;;;;5120347;27;39318;-78
2021/05/09 12:12:56;;;;;;;1.33;0.90;;;30.60;13.40;;;;;;5138693;27;39534;-78
2021/05/09 12:15:23;;;;;;;3.23;0.90;;;30.60;13.40;;;;;;5136664;27;37475;-79
2021/05/09 12:17:55;;;;;;;1.00;0.80;;;30.50;13.30;;;;;;5139941;27;39394;-78
2021/05/09 12:20:31;;;;;;;2.20;1.10;;;30.50;13.60;;;;;;5118599;27;37640;-77
2021/05/09 12:23:00;;;;;;;1.90;1.00;;;30.70;13.20;;;;;;5133356;27;37908;-77
2021/05/09 12:25:45;;;;;;;1.47;0.90;;;30.70;13.20;;;;;;5109215;27;37067;-77
2021/05/09 12:28:16;;;;;;;0.93;0.73;;;30.80;13.70;;;;;;5119373;27;40599;-77
2021/05/09 12:30:47;;;;;;;1.40;0.70;;;30.90;13.90;;;;;;5125725;27;39392;-77
2021/05/09 12:33:25;;;;;;;0.90;0.70;;;31.10;13.40;;;;;;5125763;27;38187;-77
2021/05/09 12:35:54;;;;;;;3.77;1.20;;;31.10;13.30;;;;;;5124795;27;38316;-77
2021/05/09 12:38:24;;;;;;;2.10;0.77;;;31.10;13.50;;;;;;5101398;28;38253;-77
2021/05/09 12:41:03;;;;;;;1.30;1.00;;;30.80;13.70;;;;;;5127317;27;39029;-77
2021/05/09 12:43:46;;;;;;;1.30;0.73;;;30.50;13.50;;;;;;5115816;27;37937;-77
2021/05/09 12:46:37;;;;;;;1.50;1.00;;;30.50;14.20;;;;;;5118896;27;36800;-77
2021/05/09 12:49:08;;;;;;;1.93;1.13;;;30.50;14.10;;;;;;5121716;27;39836;-77
2021/05/09 12:51:36;;;;;;;2.60;0.97;;;30.50;14.30;;;;;;5113519;27;38633;-76
2021/05/09 12:54:05;;;;;;;5.90;0.93;;;30.40;14.30;;;;;;5106846;27;36630;-77
2021/05/09 12:56:33;;;;;;;1.60;0.90;;;30.40;14.20;;;;;;5116880;27;37203;-77
2021/05/09 12:59:10;;;;;;;1.43;1.00;;;30.30;14.30;;;;;;5103132;27;39919;-76
2021/05/09 13:01:39;;;;;;;1.63;1.17;;;30.10;14.40;;;;;;5114294;27;39359;-76
2021/05/09 13:04:26;;;;;;;1.17;0.83;;;30.10;14.20;;;;;;5128631;27;38827;-76
2021/05/09 13:06:53;;;;;;;1.17;0.70;;;29.90;14.00;;;;;;5117151;27;37235;-77
2021/05/09 13:09:20;;;;;;;1.00;0.90;;;30.00;14.80;;;;;;5112527;27;39577;-77